Time;durP1;ratioP1;P1;durP2;ratioP2;P2;SDS_P1;SDS_P2;PMS_P1;PMS_P2;Temp;Humidity;BMP_temperature;BMP_pressure;BME280_temperature;BME280_humidity;BME280_pressure;Samples;Min_cycle;Max_cycle;Signal;HPM_P1;HPM_P2
2021/09/07 00:01:17;;;;;;;18.90;14.45;;;;;;;16.57;85.17;101580.81;5086640;28;20143;-67
2021/09/07 00:03:44;;;;;;;24.30;14.30;;;;;;;16.52;85.53;101579.41;5083012;28;20055;-68
2021/09/07 00:06:11;;;;;;;17.20;13.45;;;;;;;16.45;85.67;101568.38;5085358;28;20427;-67
2021/09/07 00:08:39;;;;;;;17.02;13.00;;;;;;;16.35;86.24;101567.31;5052615;28;20139;-67
2021/09/07 00:11:06;;;;;;;23.08;13.90;;;;;;;16.32;86.35;101571.00;5069450;28;20609;-66
2021/09/07 00:13:33;;;;;;;20.98;14.45;;;;;;;16.27;86.74;101556.34;5065412;28;20541;-67
2021/09/07 00:16:00;;;;;;;17.52;13.65;;;;;;;16.40;86.17;101559.88;5081651;28;20219;-67
2021/09/07 00:18:28;;;;;;;20.55;14.50;;;;;;;16.35;86.20;101562.00;5068551;28;20135;-67
2021/09/07 00:20:55;;;;;;;18.52;13.48;;;;;;;16.31;86.23;101552.53;5064696;28;20513;-67
2021/09/07 00:23:22;;;;;;;18.02;14.35;;;;;;;16.48;84.90;101556.66;5066897;28;20131;-67
2021/09/07 00:25:50;;;;;;;19.52;14.10;;;;;;;16.39;85.48;101559.00;5078936;28;20056;-69
2021/09/07 00:28:17;;;;;;;20.25;13.20;;;;;;;16.39;85.66;101555.47;5082243;28;20058;-66
2021/09/07 00:30:44;;;;;;;18.17;14.18;;;;;;;16.44;86.02;101559.53;5080912;28;20079;-67
2021/09/07 00:33:11;;;;;;;18.13;13.30;;;;;;;16.50;85.75;101552.09;5084343;28;20123;-66
2021/09/07 00:35:38;;;;;;;21.35;14.35;;;;;;;16.36;86.36;101555.72;5081205;28;20127;-66
2021/09/07 00:38:06;;;;;;;16.38;12.13;;;;;;;16.44;86.57;101564.00;5082648;28;20048;-67
2021/09/07 00:40:33;;;;;;;20.45;13.55;;;;;;;16.38;86.05;101553.78;5084229;28;20167;-66
2021/09/07 00:43:00;;;;;;;28.90;13.90;;;;;;;16.44;86.27;101551.56;5086141;28;20502;-66
2021/09/07 00:45:27;;;;;;;19.45;14.32;;;;;;;16.49;86.10;101547.75;5063002;28;20131;-68
2021/09/07 00:47:56;;;;;;;17.60;13.23;;;;;;;16.40;86.51;101546.56;5061658;28;20128;-67
2021/09/07 00:50:24;;;;;;;19.70;13.18;;;;;;;16.38;86.60;101543.16;5078205;28;20079;-67
2021/09/07 00:52:51;;;;;;;18.33;13.80;;;;;;;16.40;86.11;101543.91;5064075;28;20070;-69
2021/09/07 00:55:19;;;;;;;18.50;14.50;;;;;;;16.42;85.92;101539.34;5082188;28;20160;-66
2021/09/07 00:57:49;;;;;;;21.77;13.88;;;;;;;16.35;86.53;101538.06;5049887;28;20445;-68
2021/09/07 01:00:16;;;;;;;17.13;13.75;;;;;;;16.34;86.25;101531.03;5080033;28;20044;-68
2021/09/07 01:02:44;;;;;;;20.13;15.13;;;;;;;16.31;86.45;101531.25;5067615;28;20055;-67
2021/09/07 01:05:11;;;;;;;18.73;14.43;;;;;;;16.37;86.47;101534.34;5078043;28;20054;-69
2021/09/07 01:07:38;;;;;;;19.52;13.52;;;;;;;16.37;86.05;101533.50;5064343;28;20570;-68
2021/09/07 01:10:06;;;;;;;21.83;14.60;;;;;;;16.32;86.63;101533.81;5061414;28;20060;-66
2021/09/07 01:12:34;;;;;;;20.55;14.32;;;;;;;16.33;86.76;101535.50;5077279;28;20191;-66
2021/09/07 01:15:02;;;;;;;21.83;14.68;;;;;;;16.24;86.97;101530.81;5067101;28;20046;-67
2021/09/07 01:17:30;;;;;;;20.15;14.45;;;;;;;16.10;87.99;101533.56;5068005;28;20108;-67
2021/09/07 01:19:57;;;;;;;20.77;14.20;;;;;;;16.10;87.69;101531.75;5078734;28;20053;-68
2021/09/07 01:22:24;;;;;;;21.08;13.95;;;;;;;16.07;88.47;101539.91;5082774;28;20460;-68
2021/09/07 01:24:52;;;;;;;21.60;14.55;;;;;;;15.95;88.65;101544.28;5076803;28;20149;-66
2021/09/07 01:27:19;;;;;;;23.50;14.57;;;;;;;15.89;89.17;101539.34;5082895;28;20147;-67
2021/09/07 01:29:48;;;;;;;21.10;15.13;;;;;;;15.84;89.47;101551.25;5078043;28;20049;-67
2021/09/07 01:32:17;;;;;;;22.67;13.80;;;;;;;15.78;90.45;101547.19;5067625;28;20062;-68
2021/09/07 01:34:44;;;;;;;24.30;14.18;;;;;;;15.66;91.04;101537.38;5075534;28;20064;-67
2021/09/07 01:37:11;;;;;;;22.27;14.93;;;;;;;15.69;91.30;101540.69;5055589;22;20053;-68
2021/09/07 01:39:39;;;;;;;20.48;14.23;;;;;;;15.70;90.93;101536.22;5005255;28;20573;-68
2021/09/07 01:42:07;;;;;;;21.38;14.60;;;;;;;15.60;91.66;101545.72;5035586;28;20422;-68
2021/09/07 01:44:39;;;;;;;24.83;15.75;;;;;;;15.45;92.14;101542.25;4988314;28;20051;-68
2021/09/07 01:47:08;;;;;;;25.90;15.20;;;;;;;15.35;93.87;101551.75;5040186;28;20135;-68
2021/09/07 01:49:35;;;;;;;21.77;14.23;;;;;;;15.33;93.67;101557.16;5027951;28;20061;-69
2021/09/07 01:52:11;;;;;;;21.55;16.08;;;;;;;15.41;93.31;101554.03;5038613;28;20079;-69
2021/09/07 01:54:39;;;;;;;;;;;;;;;15.28;94.06;101553.97;5032646;28;20160;-71
2021/09/07 01:57:06;;;;;;;27.73;14.63;;;;;;;15.17;95.80;101556.41;5046513;28;19956;-70
2021/09/07 01:59:34;;;;;;;23.50;15.27;;;;;;;15.11;96.00;101554.16;5045373;28;20177;-70
2021/09/07 02:02:02;;;;;;;25.85;15.88;;;;;;;15.09;96.47;101556.94;5029852;28;20143;-71
2021/09/07 02:04:29;;;;;;;22.52;14.43;;;;;;;15.16;96.00;101555.56;5042127;28;20489;-71
2021/09/07 02:06:57;;;;;;;26.60;14.57;;;;;;;15.03;96.79;101559.94;5032133;28;20088;-69
2021/09/07 02:09:24;;;;;;;21.52;15.73;;;;;;;14.90;97.74;101556.34;5052460;28;20048;-69
2021/09/07 02:11:52;;;;;;;22.63;15.23;;;;;;;14.90;98.02;101556.34;5028644;28;20498;-69
2021/09/07 02:14:19;;;;;;;22.90;15.00;;;;;;;14.95;98.13;101556.94;5007721;28;20431;-70
2021/09/07 02:16:46;;;;;;;26.08;16.50;;;;;;;15.01;98.08;101561.00;5049164;28;20124;-69
2021/09/07 02:19:13;;;;;;;20.75;15.93;;;;;;;14.87;98.47;101551.25;5044181;28;20402;-70
2021/09/07 02:21:40;;;;;;;21.17;15.63;;;;;;;14.80;99.67;101553.44;5044292;28;20302;-70
2021/09/07 02:24:08;;;;;;;24.80;15.30;;;;;;;14.78;100.00;101557.13;5043689;28;20094;-70
2021/09/07 02:26:35;;;;;;;23.27;15.95;;;;;;;14.83;100.00;101553.25;5042680;28;20059;-69
2021/09/07 02:29:02;;;;;;;21.98;14.75;;;;;;;14.97;99.63;101546.22;5048875;28;20057;-70
2021/09/07 02:31:29;;;;;;;23.77;15.50;;;;;;;14.74;100.00;101550.31;5029970;28;20131;-69
2021/09/07 02:33:57;;;;;;;30.25;17.25;;;;;;;14.60;100.00;101549.38;5026372;28;20301;-70
2021/09/07 02:36:26;;;;;;;23.45;15.93;;;;;;;14.47;100.00;101550.16;5024390;28;20455;-70
2021/09/07 02:38:54;;;;;;;23.10;15.32;;;;;;;14.45;100.00;101552.88;5028327;28;20099;-70
2021/09/07 02:41:22;;;;;;;24.23;16.20;;;;;;;14.32;100.00;101560.75;5049376;28;20106;-70
2021/09/07 02:43:49;;;;;;;24.25;16.40;;;;;;;14.35;100.00;101554.41;5051424;28;20148;-69
2021/09/07 02:46:16;;;;;;;22.63;17.10;;;;;;;14.19;100.00;101551.81;5047817;28;20124;-69
2021/09/07 02:48:44;;;;;;;29.02;16.73;;;;;;;14.14;100.00;101557.41;5026388;28;20080;-68
2021/09/07 02:51:11;;;;;;;25.02;17.17;;;;;;;14.21;100.00;101549.94;5046333;28;20227;-69
2021/09/07 02:53:38;;;;;;;27.02;17.27;;;;;;;14.19;100.00;101546.53;5049847;28;20179;-70
2021/09/07 02:56:05;;;;;;;28.27;17.08;;;;;;;14.17;100.00;101551.91;5050143;28;20402;-69
2021/09/07 02:58:33;;;;;;;27.27;17.48;;;;;;;13.99;100.00;101546.84;5033960;28;21417;-71
2021/09/07 03:01:00;;;;;;;31.33;20.52;;;;;;;14.03;100.00;101551.88;5031192;28;20048;-70
2021/09/07 03:03:28;;;;;;;30.70;18.40;;;;;;;14.05;100.00;101550.00;5055211;28;20453;-68
2021/09/07 03:05:57;;;;;;;28.45;18.70;;;;;;;14.03;100.00;101553.66;5052365;28;20132;-69
2021/09/07 03:08:24;;;;;;;28.48;18.50;;;;;;;14.02;100.00;101551.97;5060131;28;20049;-69
2021/09/07 03:10:51;;;;;;;31.13;19.58;;;;;;;13.98;100.00;101540.69;5048134;28;20157;-69
2021/09/07 03:13:18;;;;;;;28.17;18.23;;;;;;;13.98;100.00;101547.78;5028551;28;20131;-70
2021/09/07 03:15:46;;;;;;;30.08;18.52;;;;;;;13.92;100.00;101544.56;5048858;28;20422;-68
2021/09/07 03:18:14;;;;;;;26.63;20.23;;;;;;;13.81;100.00;101548.75;5053098;28;20060;-69
2021/09/07 03:20:41;;;;;;;31.23;18.35;;;;;;;13.80;100.00;101545.25;5013241;28;20046;-70
2021/09/07 03:23:09;;;;;;;30.88;19.75;;;;;;;13.79;100.00;101543.56;5047837;28;20049;-69
2021/09/07 03:25:36;;;;;;;30.65;21.08;;;;;;;13.78;100.00;101539.22;5008538;28;20037;-68
2021/09/07 03:28:03;;;;;;;29.52;20.10;;;;;;;13.73;100.00;101543.91;5027892;28;20079;-69
2021/09/07 03:30:30;;;;;;;29.90;19.58;;;;;;;13.63;100.00;101538.28;5003594;28;20100;-69
2021/09/07 03:32:57;;;;;;;33.13;23.83;;;;;;;13.71;100.00;101547.59;5030471;28;20060;-69
2021/09/07 03:35:25;;;;;;;31.73;24.13;;;;;;;13.54;100.00;101546.75;5027856;28;20077;-69
2021/09/07 03:37:52;;;;;;;34.45;21.88;;;;;;;13.62;100.00;101549.81;5051827;28;20055;-69
2021/09/07 03:40:19;;;;;;;30.60;21.42;;;;;;;13.46;100.00;101554.25;5026412;28;20140;-69
2021/09/07 03:42:46;;;;;;;33.53;21.60;;;;;;;13.43;100.00;101559.75;5048813;28;20049;-70
2021/09/07 03:45:14;;;;;;;35.45;21.02;;;;;;;13.37;100.00;101550.38;5042450;28;20049;-70
2021/09/07 03:47:42;;;;;;;31.95;21.58;;;;;;;13.41;100.00;101558.94;5033376;28;20132;-69
2021/09/07 03:50:10;;;;;;;30.98;21.20;;;;;;;13.32;100.00;101556.81;5045185;28;20048;-69
2021/09/07 03:52:38;;;;;;;28.63;20.70;;;;;;;13.32;100.00;101559.47;5030088;28;20045;-69
2021/09/07 03:55:06;;;;;;;32.95;20.88;;;;;;;13.44;100.00;101561.44;5012762;28;20521;-69
2021/09/07 03:57:34;;;;;;;30.13;21.27;;;;;;;13.51;100.00;101554.88;5030265;28;20137;-69
2021/09/07 04:00:01;;;;;;;36.90;21.52;;;;;;;13.47;100.00;101558.63;5047018;28;20064;-69
2021/09/07 04:02:29;;;;;;;33.65;20.88;;;;;;;13.36;100.00;101571.59;5017824;28;20422;-68
2021/09/07 04:04:56;;;;;;;32.72;21.17;;;;;;;13.29;100.00;101567.59;5032314;28;20041;-69
2021/09/07 04:07:23;;;;;;;34.92;20.42;;;;;;;13.28;100.00;101584.38;5051426;28;20131;-70
2021/09/07 04:09:50;;;;;;;32.83;21.63;;;;;;;13.31;100.00;101576.28;5027971;28;20051;-69
2021/09/07 04:12:18;;;;;;;28.52;21.50;;;;;;;13.31;100.00;101579.78;5029443;28;20042;-68
2021/09/07 04:14:45;;;;;;;31.33;21.23;;;;;;;13.34;100.00;101576.13;5033812;28;20420;-69
2021/09/07 04:17:12;;;;;;;31.70;21.23;;;;;;;13.38;100.00;101577.66;5028538;28;20140;-69
2021/09/07 04:19:39;;;;;;;27.92;19.73;;;;;;;13.40;100.00;101583.69;5028489;28;20380;-68
2021/09/07 04:22:07;;;;;;;33.65;21.90;;;;;;;13.40;100.00;101575.78;5045395;28;20850;-68
2021/09/07 04:24:34;;;;;;;32.80;21.02;;;;;;;13.46;100.00;101579.84;5021796;28;20737;-70
2021/09/07 04:27:01;;;;;;;33.47;20.88;;;;;;;13.46;100.00;101583.34;5046082;28;20159;-70
2021/09/07 04:29:28;;;;;;;28.70;20.20;;;;;;;13.49;100.00;101588.47;5036189;28;20152;-67
2021/09/07 04:31:55;;;;;;;30.77;20.83;;;;;;;13.48;100.00;101589.44;5003668;28;20057;-67
2021/09/07 04:34:23;;;;;;;33.75;21.75;;;;;;;13.55;100.00;101593.41;5045337;28;20060;-68
2021/09/07 04:36:50;;;;;;;32.58;20.90;;;;;;;13.59;100.00;101592.31;5030182;28;20149;-67
2021/09/07 04:39:17;;;;;;;33.97;20.77;;;;;;;13.65;100.00;101593.78;5048076;28;20132;-70
2021/09/07 04:41:44;;;;;;;32.75;20.02;;;;;;;13.71;100.00;101593.44;5012037;28;20122;-68
2021/09/07 04:44:12;;;;;;;28.10;21.70;;;;;;;13.76;100.00;101598.47;5027835;28;20087;-67
2021/09/07 04:46:39;;;;;;;28.88;20.70;;;;;;;13.71;100.00;101596.06;5049907;28;20531;-65
2021/09/07 04:49:06;;;;;;;33.88;21.85;;;;;;;13.79;100.00;101599.13;5026190;28;20132;-68
2021/09/07 04:51:33;;;;;;;33.55;22.10;;;;;;;13.82;100.00;101601.59;5048500;28;20139;-67
2021/09/07 04:54:01;;;;;;;33.15;21.45;;;;;;;13.85;100.00;101605.88;5027659;28;20041;-66
2021/09/07 04:56:28;;;;;;;31.42;20.55;;;;;;;13.97;100.00;101601.69;5027720;28;20044;-67
2021/09/07 04:58:55;;;;;;;28.15;19.73;;;;;;;14.02;100.00;101608.41;5045740;28;20050;-66
2021/09/07 05:01:22;;;;;;;30.50;20.30;;;;;;;14.20;100.00;101606.50;5043996;28;20045;-67
2021/09/07 05:03:50;;;;;;;28.92;20.30;;;;;;;14.30;100.00;101599.69;5053140;28;20052;-67
2021/09/07 05:06:17;;;;;;;34.47;19.90;;;;;;;14.66;100.00;101604.63;5050391;28;20420;-67
2021/09/07 05:08:45;;;;;;;30.73;20.00;;;;;;;14.91;100.00;101601.34;5049018;28;20140;-67
2021/09/07 05:11:12;;;;;;;24.75;18.33;;;;;;;15.19;100.00;101602.28;5045115;28;20052;-67
2021/09/07 05:13:39;;;;;;;24.75;17.35;;;;;;;15.23;100.00;101610.91;5044433;28;20400;-67
2021/09/07 05:16:06;;;;;;;29.50;19.10;;;;;;;15.26;100.00;101610.69;5026336;28;20045;-67
2021/09/07 05:18:34;;;;;;;25.77;17.50;;;;;;;15.57;100.00;101604.28;5052800;28;20576;-67
2021/09/07 05:21:02;;;;;;;29.38;18.70;;;;;;;15.93;98.48;101611.69;5045614;28;20084;-67
2021/09/07 05:23:29;;;;;;;29.95;18.98;;;;;;;16.02;97.02;101618.22;5047937;28;21108;-66
2021/09/07 05:25:56;;;;;;;27.98;18.55;;;;;;;15.68;97.74;101612.47;5043919;28;20059;-67
2021/09/07 05:28:24;;;;;;;30.50;19.17;;;;;;;15.62;97.91;101621.63;5048197;28;20049;-68
2021/09/07 05:31:11;;;;;;;29.58;19.77;;;;;;;15.08;100.00;101618.84;5044937;28;20061;-68
2021/09/07 05:33:38;;;;;;;27.33;18.38;;;;;;;15.30;100.00;101625.47;5048341;28;20084;-67
2021/09/07 05:36:05;;;;;;;27.55;17.55;;;;;;;15.48;99.45;101624.31;5013560;28;20072;-68
2021/09/07 05:38:32;;;;;;;31.02;19.70;;;;;;;15.73;97.88;101625.44;5040904;28;20526;-67
2021/09/07 05:41:00;;;;;;;25.52;16.77;;;;;;;16.02;95.67;101628.84;5048448;28;20132;-66
2021/09/07 05:43:27;;;;;;;27.70;17.15;;;;;;;16.38;93.59;101621.06;5055656;28;20048;-67
2021/09/07 05:45:54;;;;;;;32.10;17.08;;;;;;;16.55;91.96;101627.91;5056857;28;21603;-67
2021/09/07 05:48:21;;;;;;;26.70;17.20;;;;;;;16.74;90.75;101621.38;5032990;28;20086;-68
2021/09/07 05:50:48;;;;;;;29.33;16.98;;;;;;;16.75;89.84;101623.94;5050866;28;20317;-67
2021/09/07 05:53:15;;;;;;;27.45;17.45;;;;;;;16.77;89.33;101627.31;5059476;28;20056;-66
2021/09/07 05:55:43;;;;;;;23.27;15.52;;;;;;;16.82;89.19;101622.53;5049889;28;20053;-67
2021/09/07 05:58:10;;;;;;;27.77;18.13;;;;;;;16.86;88.56;101636.47;5048490;28;20083;-67
2021/09/07 06:00:37;;;;;;;29.20;17.40;;;;;;;16.81;88.67;101635.94;5035303;28;20114;-67
2021/09/07 06:03:08;;;;;;;26.02;16.85;;;;;;;16.95;89.13;101638.50;5041310;28;20131;-69
2021/09/07 06:05:36;;;;;;;22.25;16.85;;;;;;;16.82;88.62;101634.97;5043850;28;20063;-66
2021/09/07 06:08:03;;;;;;;26.13;17.25;;;;;;;16.78;90.04;101633.50;5015011;28;20148;-67
2021/09/07 06:10:31;;;;;;;21.92;15.35;;;;;;;16.98;88.76;101640.97;5022899;28;20045;-66
2021/09/07 06:13:01;;;;;;;25.75;15.10;;;;;;;17.02;86.58;101636.25;5046990;28;20041;-67
2021/09/07 06:15:28;;;;;;;21.17;14.68;;;;;;;16.99;86.47;101634.66;5049513;28;20057;-68
2021/09/07 06:17:55;;;;;;;25.20;15.27;;;;;;;17.34;85.81;101629.53;5048996;28;20553;-67
2021/09/07 06:20:23;;;;;;;25.88;15.30;;;;;;;17.95;82.85;101637.56;5044204;28;20076;-67
2021/09/07 06:22:52;;;;;;;28.63;14.63;;;;;;;18.12;81.13;101638.97;5010023;28;20431;-68
2021/09/07 06:25:19;;;;;;;23.23;16.00;;;;;;;18.41;80.50;101642.09;5027738;28;20213;-67
2021/09/07 06:27:47;;;;;;;23.50;14.00;;;;;;;20.13;72.31;101634.72;5036424;28;20049;-67
2021/09/07 06:30:14;;;;;;;24.90;13.95;;;;;;;22.82;62.00;101637.56;5055372;28;20064;-67
2021/09/07 06:32:41;;;;;;;22.85;13.52;;;;;;;24.81;54.49;101633.16;5052680;28;20120;-68
2021/09/07 06:35:10;;;;;;;21.25;12.98;;;;;;;26.12;49.28;101631.84;5047994;28;20078;-67
2021/09/07 06:37:37;;;;;;;22.50;12.25;;;;;;;26.51;47.27;101634.72;5030510;28;20133;-67
2021/09/07 06:40:06;;;;;;;19.02;12.07;;;;;;;25.71;48.66;101632.59;5045738;28;20060;-66
2021/09/07 06:42:34;;;;;;;17.20;11.32;;;;;;;27.17;44.46;101641.69;5048584;28;20083;-68
2021/09/07 06:45:02;;;;;;;14.25;10.88;;;;;;;23.74;52.98;101643.00;5047315;28;20041;-68
2021/09/07 06:47:29;;;;;;;18.52;11.48;;;;;;;21.81;59.38;101644.22;5032655;28;20045;-67
2021/09/07 06:50:00;;;;;;;19.10;11.70;;;;;;;21.98;59.46;101648.91;5045392;28;20169;-71
2021/09/07 06:52:28;;;;;;;19.55;12.40;;;;;;;21.60;60.95;101643.47;5049050;28;20127;-67
2021/09/07 06:54:55;;;;;;;24.73;12.98;;;;;;;20.88;63.54;101649.75;5044561;28;20057;-67
2021/09/07 06:57:23;;;;;;;20.38;12.43;;;;;;;21.20;63.38;101641.59;5058878;28;20432;-67
2021/09/07 06:59:50;;;;;;;16.73;11.18;;;;;;;22.80;59.17;101641.38;5029526;28;20550;-67
2021/09/07 07:02:17;;;;;;;14.60;10.57;;;;;;;22.98;56.78;101653.09;5056346;28;20071;-67
2021/09/07 07:04:45;;;;;;;17.83;10.80;;;;;;;24.47;53.35;101652.78;5054579;28;20053;-68
2021/09/07 07:07:13;;;;;;;13.88;9.40;;;;;;;26.44;47.57;101644.53;5031371;28;20068;-68
2021/09/07 07:09:40;;;;;;;17.55;9.27;;;;;;;27.44;44.54;101648.50;5015413;28;20140;-68
2021/09/07 07:12:08;;;;;;;15.00;9.27;;;;;;;27.81;43.55;101641.56;5014746;28;20136;-68
2021/09/07 07:14:35;;;;;;;12.10;8.32;;;;;;;28.69;41.38;101651.91;5034234;28;20045;-68
2021/09/07 07:17:02;;;;;;;13.82;9.70;;;;;;;28.82;40.46;101656.69;5051909;28;20134;-68
2021/09/07 07:19:30;;;;;;;18.95;10.75;;;;;;;29.55;39.14;101648.75;5035146;28;20143;-67
2021/09/07 07:21:57;;;;;;;21.83;10.98;;;;;;;29.14;39.12;101647.38;5048922;28;20048;-68
2021/09/07 07:24:24;;;;;;;16.17;9.60;;;;;;;29.47;38.45;101649.69;5048364;28;21057;-67
2021/09/07 07:27:01;;;;;;;14.40;9.45;;;;;;;29.20;38.54;101648.50;5050021;28;20048;-70
2021/09/07 07:29:28;;;;;;;14.50;8.55;;;;;;;30.16;37.20;101649.22;5054041;28;20079;-68
2021/09/07 07:31:56;;;;;;;13.60;8.90;;;;;;;29.43;37.67;101646.50;5054336;28;20085;-68
2021/09/07 07:34:23;;;;;;;14.60;8.50;;;;;;;28.86;39.23;101657.97;5025715;28;20053;-68
2021/09/07 07:36:54;;;;;;;15.50;8.02;;;;;;;29.13;38.46;101653.81;5054161;28;20077;-67
2021/09/07 07:39:21;;;;;;;16.73;8.88;;;;;;;29.00;38.95;101648.22;5029710;28;20908;-69
2021/09/07 07:41:48;;;;;;;24.08;9.70;;;;;;;28.07;39.99;101659.34;5030107;28;20162;-68
2021/09/07 07:44:16;;;;;;;14.57;8.70;;;;;;;28.33;40.37;101657.13;5033864;28;20103;-68
2021/09/07 07:46:43;;;;;;;13.15;8.68;;;;;;;29.27;38.20;101660.28;5049631;28;20414;-67
2021/09/07 07:49:11;;;;;;;35.90;10.00;;;;;;;28.98;38.91;101670.09;5049086;28;20072;-68
2021/09/07 07:51:38;;;;;;;22.63;9.68;;;;;;;29.13;38.58;101663.81;5051477;28;20123;-68
2021/09/07 07:54:08;;;;;;;18.50;10.13;;;;;;;31.53;34.37;101655.00;5045786;28;20057;-69
2021/09/07 07:56:37;;;;;;;13.40;8.27;;;;;;;31.39;33.34;101670.44;5043339;28;20518;-70
2021/09/07 07:59:04;;;;;;;17.60;9.25;;;;;;;30.91;34.40;101667.63;5030045;28;20076;-69
2021/09/07 08:01:31;;;;;;;16.55;9.15;;;;;;;31.60;33.44;101668.63;5054130;28;20410;-68
2021/09/07 08:03:59;;;;;;;18.83;8.75;;;;;;;31.86;32.90;101668.75;5049656;28;20060;-69
2021/09/07 08:06:27;;;;;;;16.70;8.65;;;;;;;31.41;33.16;101671.06;5052316;28;20053;-69
2021/09/07 08:08:55;;;;;;;15.52;9.63;;;;;;;30.83;33.85;101675.09;5058327;28;20146;-67
2021/09/07 08:11:22;;;;;;;12.40;8.70;;;;;;;31.13;33.71;101678.44;5044816;28;20135;-67
2021/09/07 08:13:51;;;;;;;17.10;9.40;;;;;;;30.53;34.25;101677.97;5034962;28;20182;-68
2021/09/07 08:16:19;;;;;;;16.50;9.82;;;;;;;29.87;34.71;101674.59;5056600;28;20049;-67
2021/09/07 08:18:49;;;;;;;14.07;9.73;;;;;;;30.03;34.96;101682.47;5051218;28;20084;-68
2021/09/07 08:21:16;;;;;;;15.07;10.27;;;;;;;30.08;35.30;101680.06;5019714;28;20568;-67
2021/09/07 08:23:43;;;;;;;16.23;8.77;;;;;;;30.26;34.91;101671.47;5048035;28;20045;-67
2021/09/07 08:26:10;;;;;;;12.57;9.10;;;;;;;30.20;34.67;101670.38;5042505;28;20052;-68
2021/09/07 08:28:38;;;;;;;16.17;10.20;;;;;;;30.17;34.67;101678.94;5042300;28;20076;-67
2021/09/07 08:31:05;;;;;;;18.10;11.40;;;;;;;29.39;35.99;101682.31;5049130;28;20075;-68
2021/09/07 08:33:32;;;;;;;15.60;10.95;;;;;;;28.21;37.38;101678.34;5046099;28;20084;-68
2021/09/07 08:35:59;;;;;;;15.57;10.38;;;;;;;28.91;37.53;101681.81;5046109;28;20095;-68
2021/09/07 08:38:27;;;;;;;15.30;9.65;;;;;;;29.79;35.77;101675.56;5026654;28;20521;-68
2021/09/07 08:40:54;;;;;;;17.13;10.90;;;;;;;28.13;38.93;101686.53;5046808;28;20092;-67
2021/09/07 08:43:21;;;;;;;15.95;11.02;;;;;;;26.12;42.45;101683.97;5031308;28;20270;-67
2021/09/07 08:45:52;;;;;;;20.52;11.13;;;;;;;25.35;44.64;101682.31;5047689;28;20140;-69
2021/09/07 08:48:22;;;;;;;32.45;13.43;;;;;;;24.04;47.13;101685.81;5047236;28;20073;-68
2021/09/07 08:50:49;;;;;;;23.63;11.75;;;;;;;23.75;48.46;101685.00;5050486;28;20060;-68
2021/09/07 08:53:28;;;;;;;27.25;13.65;;;;;;;23.65;49.01;101686.09;5051259;28;20114;-69
2021/09/07 08:55:56;;;;;;;16.85;12.10;;;;;;;23.85;49.23;101684.13;5011988;28;20087;-67
2021/09/07 08:58:23;;;;;;;20.65;11.27;;;;;;;23.00;51.12;101683.31;5046344;28;20077;-66
2021/09/07 09:00:50;;;;;;;17.55;11.43;;;;;;;22.61;51.89;101683.38;5030720;28;20059;-68
2021/09/07 09:03:18;;;;;;;21.33;11.88;;;;;;;23.02;51.83;101683.19;5050775;28;20091;-67
2021/09/07 09:05:48;;;;;;;27.60;11.30;;;;;;;23.10;50.93;101684.16;5048590;28;20084;-67
2021/09/07 09:08:17;;;;;;;18.50;12.23;;;;;;;22.99;50.48;101692.38;5050945;28;20140;-67
2021/09/07 09:10:46;;;;;;;22.48;11.57;;;;;;;22.26;52.08;101694.69;5046199;28;20568;-68
2021/09/07 09:13:16;;;;;;;16.52;11.10;;;;;;;22.60;52.78;101689.72;5032599;28;20228;-70
2021/09/07 09:16:02;;;;;;;21.73;12.30;;;;;;;22.67;52.49;101690.00;5049529;28;20123;-68
2021/09/07 09:18:33;;;;;;;;;;;;;;;22.48;52.76;101696.25;5066588;28;20052;-68
2021/09/07 09:21:20;;;;;;;30.02;12.07;;;;;;;22.92;52.72;101693.94;5026877;28;19974;-67
2021/09/07 09:24:09;;;;;;;21.50;11.45;;;;;;;22.39;52.02;101687.22;5009882;28;20051;-67
2021/09/07 09:27:02;;;;;;;24.25;11.63;;;;;;;22.32;52.05;101701.31;5052209;28;20052;-68
2021/09/07 09:29:32;;;;;;;19.38;12.10;;;;;;;21.76;53.31;101693.88;5028734;28;20063;-68
2021/09/07 09:32:13;;;;;;;13.57;9.82;;;;;;;22.85;51.84;101700.88;5031673;28;20426;-67
2021/09/07 09:34:41;;;;;;;14.32;10.35;;;;;;;23.22;50.58;101692.88;5048537;28;20053;-66
2021/09/07 09:37:12;;;;;;;15.02;11.00;;;;;;;23.34;51.48;101705.13;5029655;28;20131;-67
2021/09/07 09:39:46;;;;;;;20.83;11.52;;;;;;;22.92;50.89;101697.50;5019824;28;20133;-67
2021/09/07 09:42:16;;;;;;;22.83;11.77;;;;;;;22.47;51.93;101691.88;5051371;28;20056;-68
2021/09/07 09:44:44;;;;;;;17.40;10.90;;;;;;;21.97;53.22;101699.97;5030455;28;20076;-68
2021/09/07 09:47:11;;;;;;;17.42;11.02;;;;;;;22.48;53.25;101693.56;5055263;28;20048;-67
2021/09/07 09:49:38;;;;;;;14.38;10.73;;;;;;;22.57;52.32;101694.56;5027553;28;20198;-67
2021/09/07 09:52:07;;;;;;;19.63;11.02;;;;;;;21.60;54.14;101692.53;5012701;28;20115;-68
2021/09/07 09:54:36;;;;;;;17.92;10.88;;;;;;;22.82;52.81;101685.03;5049271;28;20059;-67
2021/09/07 09:57:04;;;;;;;17.92;10.20;;;;;;;23.13;52.49;101686.53;5030346;28;20076;-68
2021/09/07 09:59:32;;;;;;;25.70;12.18;;;;;;;22.60;52.80;101689.72;5019353;28;20102;-67
2021/09/07 10:02:00;;;;;;;21.92;10.57;;;;;;;22.32;52.68;101685.22;5053784;28;20059;-66
2021/09/07 10:04:29;;;;;;;22.10;11.38;;;;;;;22.24;53.11;101686.78;5030252;28;20750;-67
2021/09/07 10:06:57;;;;;;;17.52;10.75;;;;;;;22.03;53.85;101691.38;5030849;28;20260;-67
2021/09/07 10:09:27;;;;;;;19.48;12.32;;;;;;;21.83;54.33;101681.59;5047839;28;20088;-68
2021/09/07 10:11:59;;;;;;;17.77;10.73;;;;;;;22.36;53.29;101679.44;5052002;28;20136;-66
2021/09/07 10:14:32;;;;;;;;;;;;;;;22.86;51.52;101673.00;5029800;28;20047;-67
2021/09/07 10:17:30;;;;;;;16.00;10.07;;;;;;;22.52;51.67;101678.88;5054566;28;19995;-67
2021/09/07 10:20:19;;;;;;;16.27;10.93;;;;;;;22.69;51.96;101674.59;5049950;28;20597;-66
2021/09/07 10:23:12;;;;;;;22.85;12.40;;;;;;;22.62;52.23;101679.72;5049844;28;20187;-68
2021/09/07 10:25:57;;;;;;;16.50;9.98;;;;;;;22.65;50.66;101679.44;5036804;28;20107;-67
2021/09/07 10:28:33;;;;;;;24.58;11.63;;;;;;;22.35;51.71;101671.53;5050851;28;20057;-69
2021/09/07 10:31:12;;;;;;;18.40;10.13;;;;;;;22.48;51.29;101677.47;5046898;28;20091;-68
2021/09/07 10:34:00;;;;;;;18.83;9.95;;;;;;;22.57;50.24;101665.88;5047653;28;20072;-68
2021/09/07 10:36:31;;;;;;;16.55;10.32;;;;;;;22.63;50.09;101662.59;5056819;28;20049;-66
2021/09/07 10:38:59;;;;;;;21.20;10.15;;;;;;;22.60;51.31;101668.25;5053800;28;20082;-68
2021/09/07 10:41:28;;;;;;;21.98;11.88;;;;;;;22.58;51.07;101670.25;5051626;28;20049;-68
2021/09/07 10:43:56;;;;;;;13.73;9.80;;;;;;;22.84;50.19;101666.97;5049281;28;20084;-66
2021/09/07 10:46:49;;;;;;;14.02;9.57;;;;;;;22.49;50.19;101679.16;5028092;28;20374;-66
2021/09/07 10:49:22;;;;;;;20.20;11.82;;;;;;;22.61;50.00;101669.97;5047566;28;20057;-66
2021/09/07 10:52:08;;;;;;;17.48;10.10;;;;;;;22.84;49.93;101662.44;5033122;28;20125;-66
2021/09/07 10:54:50;;;;;;;17.25;10.25;;;;;;;23.02;48.98;101665.25;5034680;28;20182;-67
2021/09/07 10:57:39;;;;;;;18.08;9.80;;;;;;;23.52;48.07;101664.88;5038303;28;20128;-68
2021/09/07 11:00:18;;;;;;;20.30;9.85;;;;;;;23.60;47.59;101664.16;5045927;28;20068;-66
2021/09/07 11:02:48;;;;;;;17.35;8.70;;;;;;;23.53;48.24;101663.88;5051474;28;20053;-66
2021/09/07 11:05:25;;;;;;;13.10;7.38;;;;;;;23.19;49.13;101675.22;5051190;28;20345;-67
2021/09/07 11:08:05;;;;;;;17.70;8.70;;;;;;;23.33;48.26;101671.22;5056075;28;20052;-68
2021/09/07 11:10:40;;;;;;;19.77;7.53;;;;;;;23.54;48.20;101662.88;5026193;28;20056;-67
2021/09/07 11:13:29;;;;;;;15.15;8.75;;;;;;;23.88;48.05;101665.00;5050425;28;20050;-68
2021/09/07 11:16:04;;;;;;;10.90;7.03;;;;;;;23.60;48.55;101658.78;5031807;28;20411;-67
2021/09/07 11:18:32;;;;;;;11.02;7.63;;;;;;;23.25;49.13;101655.81;5031277;28;20037;-66